Milo, Kentucky
Current Conditions -  °F | °C
As of 3:15 AM on Sunday 23 Nov 2014 (Local Time) from KSJS Reporting Station
Overcast Overcast  
Wind Chill: 51°   Ceiling: 10000
Heat Index: 51°   Visibility: 10mi
Dew Point: 28°   Wind: 5mph
Humidity: 42%   Direction: 150°SSE
Pressure: 30.11"   Gusts: NA
Location:  37.8776°N, 82.5976°W
Report Text: KSJS 230815Z AUTO 15004KT 10SM OVC100 11/M02 A3011 RMK AO2 T01051020
Loading
Personal Weather Stations






























Interactive Weather Map New forecast layout! Learn more

10-Day Weather Forecast

Advertisements
Track Severe Weather on mobile